createdAt,value
2022-11-05T00:01:03.152Z,10.22
2022-11-05T00:02:24.135Z,10.12
2022-11-05T00:03:44.708Z,10.12
2022-11-05T00:05:05.747Z,10.14
2022-11-05T00:06:29.039Z,10.20
2022-11-05T00:07:58.375Z,10.15
2022-11-05T00:09:18.763Z,10.15
2022-11-05T00:10:24.268Z,10.13
2022-11-05T00:11:46.858Z,10.13
2022-11-05T00:13:07.858Z,10.16
2022-11-05T00:14:29.048Z,10.20
2022-11-05T00:15:49.830Z,10.15
2022-11-05T00:16:52.087Z,10.07
2022-11-05T00:17:54.251Z,10.14
2022-11-05T00:19:09.230Z,10.15
2022-11-05T00:20:13.648Z,10.17
2022-11-05T00:21:34.106Z,10.20
2022-11-05T00:22:55.041Z,10.22
2022-11-05T00:24:20.405Z,10.21
2022-11-05T00:25:25.486Z,10.14
2022-11-05T00:26:27.647Z,10.26
2022-11-05T00:27:35.579Z,10.32
2022-11-05T00:28:43.723Z,10.25
2022-11-05T00:29:46.128Z,10.19
2022-11-05T00:30:48.880Z,10.18
2022-11-05T00:31:51.064Z,10.15
2022-11-05T00:32:53.496Z,10.13
2022-11-05T00:33:58.706Z,10.14
2022-11-05T00:35:01.290Z,10.24
2022-11-05T00:36:07.812Z,10.21
2022-11-05T00:37:09.970Z,10.22
2022-11-05T00:38:13.130Z,10.21
2022-11-05T00:39:15.537Z,10.13
2022-11-05T00:40:18.028Z,10.20
2022-11-05T00:41:20.748Z,10.26
2022-11-05T00:42:41.383Z,10.28
2022-11-05T00:44:02.766Z,10.34
2022-11-05T00:45:07.405Z,10.23
2022-11-05T00:46:10.098Z,10.29
2022-11-05T00:47:50.927Z,10.35
2022-11-05T00:49:11.492Z,10.42
2022-11-05T00:50:14.229Z,10.43
2022-11-05T00:51:19.777Z,10.40
2022-11-05T00:52:40.836Z,10.38
2022-11-05T00:53:43.214Z,10.39
2022-11-05T00:54:45.388Z,10.39
2022-11-05T00:55:51.021Z,10.33
2022-11-05T00:56:53.429Z,10.34
2022-11-05T00:57:57.324Z,10.30
2022-11-05T00:58:59.696Z,10.30
2022-11-05T01:00:01.878Z,10.23
2022-11-05T01:01:04.527Z,10.22
2022-11-05T01:02:07.098Z,10.23
2022-11-05T01:03:12.352Z,10.24
2022-11-05T01:04:14.755Z,10.27
2022-11-05T01:05:17.334Z,10.16
2022-11-05T01:06:19.503Z,10.21
2022-11-05T01:07:21.866Z,10.18
2022-11-05T01:08:26.351Z,10.22
2022-11-05T01:09:28.542Z,10.19
2022-11-05T01:10:30.739Z,10.15
2022-11-05T01:11:33.514Z,10.21
2022-11-05T01:12:39.027Z,10.30
2022-11-05T01:13:41.353Z,10.32
2022-11-05T01:14:44.720Z,10.30
2022-11-05T01:15:50.976Z,10.27
2022-11-05T01:16:53.598Z,10.17
2022-11-05T01:17:56.940Z,10.19
2022-11-05T01:19:00.702Z,10.16
2022-11-05T01:20:05.354Z,10.16
2022-11-05T01:21:15.764Z,10.24
2022-11-05T01:22:18.156Z,10.23
2022-11-05T01:23:21.122Z,10.24
2022-11-05T01:24:23.800Z,10.21
2022-11-05T01:25:26.438Z,10.22
2022-11-05T01:26:31.612Z,10.13
2022-11-05T01:27:33.998Z,10.12
2022-11-05T01:28:39.206Z,10.14
2022-11-05T01:29:42.271Z,10.17
2022-11-05T01:30:55.960Z,10.18
2022-11-05T01:31:58.518Z,10.20
2022-11-05T01:33:00.700Z,10.16
2022-11-05T01:34:03.103Z,10.12
2022-11-05T01:35:07.203Z,10.08
2022-11-05T01:36:09.633Z,10.22
2022-11-05T01:37:12.056Z,10.26
2022-11-05T01:38:14.230Z,10.27
2022-11-05T01:39:19.759Z,10.28
2022-11-05T01:40:24.047Z,10.25
2022-11-05T01:41:26.196Z,10.25
2022-11-05T01:42:32.908Z,10.23
2022-11-05T01:43:54.602Z,10.28
2022-11-05T01:45:19.822Z,10.23
2022-11-05T01:46:36.553Z,10.25
2022-11-05T01:47:47.818Z,10.22
2022-11-05T01:48:56.156Z,10.22
2022-11-05T01:50:03.509Z,10.26
2022-11-05T01:51:12.021Z,10.37
2022-11-05T01:52:14.398Z,10.44
2022-11-05T01:53:25.638Z,10.33
2022-11-05T01:54:32.066Z,10.27
2022-11-05T01:55:41.728Z,10.23
2022-11-05T01:56:53.622Z,10.22
2022-11-05T01:57:59.025Z,10.21
2022-11-05T01:59:25.767Z,10.21
2022-11-05T02:00:28.055Z,10.27
2022-11-05T02:01:30.430Z,10.13
2022-11-05T02:02:33.080Z,10.13
2022-11-05T02:03:36.253Z,10.15
2022-11-05T02:04:44.724Z,10.13
2022-11-05T02:05:50.000Z,10.07
2022-11-05T02:06:53.167Z,10.06
2022-11-05T02:07:56.036Z,10.15
2022-11-05T02:09:13.097Z,10.22
2022-11-05T02:10:20.559Z,10.26
2022-11-05T02:11:23.726Z,10.29
2022-11-05T02:12:28.932Z,10.28
2022-11-05T02:13:31.304Z,10.31
2022-11-05T02:14:34.420Z,10.33
2022-11-05T02:15:51.800Z,10.27
2022-11-05T02:17:26.765Z,10.23
2022-11-05T02:19:07.907Z,10.13
2022-11-05T02:20:26.181Z,10.18
2022-11-05T02:21:31.389Z,10.23
2022-11-05T02:22:46.648Z,10.19
2022-11-05T02:24:07.322Z,10.21
2022-11-05T02:25:34.135Z,10.16
2022-11-05T02:27:05.051Z,10.19
2022-11-05T02:28:26.866Z,10.12
2022-11-05T02:29:35.023Z,10.12
2022-11-05T02:31:18.902Z,10.01
2022-11-05T02:32:32.706Z,10.06
2022-11-05T02:34:19.557Z,10.02
2022-11-05T02:35:58.970Z,9.92
2022-11-05T02:37:22.319Z,9.95
2022-11-05T02:38:48.877Z,9.92
2022-11-05T02:39:59.048Z,9.94
2022-11-05T02:41:19.154Z,9.86
2022-11-05T02:42:42.478Z,9.90
2022-11-05T02:44:00.683Z,9.94
2022-11-05T02:45:05.549Z,9.92
2022-11-05T02:46:41.742Z,9.93
2022-11-05T02:48:11.141Z,10.00
2022-11-05T02:49:19.097Z,10.08
2022-11-05T02:50:39.909Z,10.12
2022-11-05T02:51:44.951Z,10.09
2022-11-05T02:53:10.259Z,10.03
2022-11-05T02:54:48.059Z,9.96
2022-11-05T02:55:59.481Z,9.96
2022-11-05T02:57:03.683Z,9.97
2022-11-05T02:58:06.989Z,9.96
2022-11-05T02:59:09.231Z,9.90
2022-11-05T03:00:39.544Z,9.99
2022-11-05T03:01:44.082Z,9.96
2022-11-05T03:02:46.599Z,9.92
2022-11-05T03:03:53.847Z,9.92
2022-11-05T03:04:56.109Z,9.93
2022-11-05T03:06:16.791Z,9.93
2022-11-05T03:07:55.081Z,9.89
2022-11-05T03:09:22.035Z,9.95
2022-11-05T03:10:35.502Z,9.92
2022-11-05T03:12:16.249Z,9.94
2022-11-05T03:13:41.589Z,9.97
2022-11-05T03:15:07.165Z,9.96
2022-11-05T03:16:20.890Z,9.85
2022-11-05T03:18:00.395Z,9.83
2022-11-05T03:19:35.030Z,9.78
2022-11-05T03:20:39.868Z,9.79
2022-11-05T03:21:48.984Z,9.88
2022-11-05T03:23:05.000Z,9.87
2022-11-05T03:24:26.563Z,9.86
2022-11-05T03:25:30.691Z,9.77
2022-11-05T03:26:45.629Z,9.80
2022-11-05T03:27:54.113Z,9.83
2022-11-05T03:29:06.635Z,9.84
2022-11-05T03:30:18.661Z,9.84
2022-11-05T03:31:23.531Z,9.89
2022-11-05T03:32:28.614Z,9.93
2022-11-05T03:33:35.413Z,10.00
2022-11-05T03:34:47.814Z,9.89
2022-11-05T03:35:56.645Z,9.89
2022-11-05T03:37:00.862Z,9.87
2022-11-05T03:38:08.035Z,9.85
2022-11-05T03:39:15.748Z,9.88
2022-11-05T03:40:21.540Z,9.92
2022-11-05T03:41:25.329Z,9.91
2022-11-05T03:42:32.681Z,9.85
2022-11-05T03:43:40.333Z,9.94
2022-11-05T03:44:48.054Z,9.92
2022-11-05T03:46:02.350Z,9.94
2022-11-05T03:47:09.306Z,9.93
2022-11-05T03:48:16.124Z,9.88
2022-11-05T03:49:30.739Z,9.89
2022-11-05T03:50:45.206Z,9.89
2022-11-05T03:52:16.343Z,9.88
2022-11-05T03:53:26.085Z,9.93
2022-11-05T03:54:32.590Z,9.94
2022-11-05T03:56:06.703Z,9.92
2022-11-05T03:57:10.733Z,9.94
2022-11-05T03:58:17.498Z,9.86
2022-11-05T03:59:20.449Z,9.86
2022-11-05T04:00:23.432Z,9.86
2022-11-05T04:01:26.107Z,9.92
2022-11-05T04:02:31.776Z,9.97
2022-11-05T04:03:36.547Z,9.89
2022-11-05T04:04:39.500Z,9.86
2022-11-05T04:05:41.754Z,9.84
2022-11-05T04:07:02.403Z,9.85
2022-11-05T04:08:25.805Z,9.89
2022-11-05T04:09:46.347Z,9.98
2022-11-05T04:11:07.070Z,9.94
2022-11-05T04:12:31.011Z,9.88
2022-11-05T04:13:33.635Z,9.87
2022-11-05T04:14:36.098Z,9.89
2022-11-05T04:15:57.124Z,9.91
2022-11-05T04:17:17.322Z,9.87
2022-11-05T04:18:19.602Z,9.82
2022-11-05T04:19:41.849Z,9.88
2022-11-05T04:21:03.214Z,9.84
2022-11-05T04:22:24.476Z,9.84
2022-11-05T04:23:45.743Z,9.81
2022-11-05T04:24:47.913Z,9.78
2022-11-05T04:25:50.564Z,9.79
2022-11-05T04:26:52.899Z,9.76
2022-11-05T04:27:58.890Z,9.74
2022-11-05T04:29:19.946Z,9.77
2022-11-05T04:30:22.767Z,9.77
2022-11-05T04:31:25.086Z,9.78
2022-11-05T04:32:27.443Z,9.84
2022-11-05T04:33:29.595Z,9.84
2022-11-05T04:34:31.960Z,9.85
2022-11-05T04:35:39.920Z,9.89
2022-11-05T04:36:43.015Z,9.84
2022-11-05T04:37:45.342Z,9.82
2022-11-05T04:38:47.678Z,9.85
2022-11-05T04:39:50.047Z,9.90
2022-11-05T04:40:54.672Z,9.91
2022-11-05T04:41:59.977Z,9.90
2022-11-05T04:43:02.278Z,9.97
2022-11-05T04:44:04.741Z,9.96
2022-11-05T04:45:07.832Z,9.95
2022-11-05T04:46:10.363Z,10.06
2022-11-05T04:47:12.634Z,9.97
2022-11-05T04:48:14.950Z,9.92
2022-11-05T04:49:17.126Z,9.94
2022-11-05T04:50:20.093Z,9.93
2022-11-05T04:51:22.374Z,10.00
2022-11-05T04:52:24.549Z,9.97
2022-11-05T04:53:26.887Z,9.95
2022-11-05T04:54:29.279Z,9.92
2022-11-05T04:55:31.635Z,9.94
2022-11-05T04:56:33.892Z,9.94
2022-11-05T04:57:36.454Z,9.97
2022-11-05T04:58:40.653Z,10.00
2022-11-05T04:59:43.001Z,10.04
2022-11-05T05:00:45.397Z,10.05
2022-11-05T05:01:52.548Z,10.07
2022-11-05T05:02:54.804Z,10.06
2022-11-05T05:03:57.028Z,10.04
2022-11-05T05:04:59.369Z,10.03
2022-11-05T05:06:04.059Z,10.01
2022-11-05T05:07:06.588Z,9.98
2022-11-05T05:08:09.140Z,10.02
2022-11-05T05:09:11.332Z,9.94
2022-11-05T05:10:13.938Z,9.95
2022-11-05T05:11:18.375Z,9.99
2022-11-05T05:12:23.330Z,9.94
2022-11-05T05:13:25.677Z,9.96
2022-11-05T05:14:28.893Z,9.94
2022-11-05T05:15:31.850Z,9.95
2022-11-05T05:16:34.135Z,9.92
2022-11-05T05:17:36.766Z,9.97
2022-11-05T05:18:42.207Z,10.02
2022-11-05T05:20:08.563Z,10.07
2022-11-05T05:21:29.938Z,10.07
2022-11-05T05:22:32.099Z,10.18
2022-11-05T05:23:34.485Z,10.11
2022-11-05T05:24:39.574Z,10.08
2022-11-05T05:25:41.900Z,10.00
2022-11-05T05:26:46.876Z,10.00
2022-11-05T05:27:49.276Z,10.05
2022-11-05T05:28:55.544Z,10.16
2022-11-05T05:29:59.437Z,10.22
2022-11-05T05:31:02.307Z,10.19
2022-11-05T05:32:06.460Z,10.17
2022-11-05T05:33:10.320Z,10.10
2022-11-05T05:34:14.722Z,10.11
2022-11-05T05:35:17.365Z,10.15
2022-11-05T05:36:21.954Z,10.19
2022-11-05T05:37:26.936Z,10.22
2022-11-05T05:38:30.068Z,10.19
2022-11-05T05:39:35.235Z,10.16
2022-11-05T05:40:37.644Z,10.12
2022-11-05T05:41:42.488Z,10.17
2022-11-05T05:42:45.245Z,10.20
2022-11-05T05:43:48.145Z,10.22
2022-11-05T05:44:50.516Z,10.21
2022-11-05T05:45:52.815Z,10.21
2022-11-05T05:46:55.552Z,10.13
2022-11-05T05:47:57.983Z,10.16
2022-11-05T05:49:00.405Z,10.24
2022-11-05T05:50:02.605Z,10.29
2022-11-05T05:51:10.109Z,10.26
2022-11-05T05:52:12.319Z,10.20
2022-11-05T05:53:14.694Z,10.19
2022-11-05T05:54:17.396Z,10.14
2022-11-05T05:55:19.591Z,10.15
2022-11-05T05:56:21.970Z,10.13
2022-11-05T05:57:24.221Z,10.10
2022-11-05T05:58:30.580Z,10.17
2022-11-05T05:59:33.187Z,10.12
2022-11-05T06:00:36.003Z,10.11
2022-11-05T06:01:38.698Z,10.05
2022-11-05T06:02:41.707Z,10.07
2022-11-05T06:03:44.573Z,10.05
2022-11-05T06:04:46.928Z,10.08
2022-11-05T06:05:49.091Z,10.12
2022-11-05T06:06:51.462Z,10.15
2022-11-05T06:07:57.577Z,10.12
2022-11-05T06:08:59.982Z,10.06
2022-11-05T06:10:02.397Z,9.95
2022-11-05T06:11:05.295Z,9.92
2022-11-05T06:12:07.667Z,9.91
2022-11-05T06:13:12.355Z,10.01
2022-11-05T06:14:14.851Z,9.96
2022-11-05T06:15:20.530Z,9.96
2022-11-05T06:16:22.759Z,9.97
2022-11-05T06:17:25.277Z,10.01
2022-11-05T06:18:29.045Z,10.02
2022-11-05T06:19:33.280Z,10.02
2022-11-05T06:20:37.756Z,10.01
2022-11-05T06:21:40.099Z,10.00
2022-11-05T06:22:42.498Z,9.95
2022-11-05T06:23:46.388Z,9.91
2022-11-05T06:24:49.027Z,9.89
2022-11-05T06:25:51.275Z,9.96
2022-11-05T06:26:53.449Z,9.96
2022-11-05T06:27:58.472Z,9.94
2022-11-05T06:29:00.666Z,9.89
2022-11-05T06:30:04.925Z,9.85
2022-11-05T06:31:07.139Z,9.87
2022-11-05T06:32:09.476Z,9.93
2022-11-05T06:33:11.845Z,9.92
2022-11-05T06:34:14.283Z,9.95
2022-11-05T06:35:17.185Z,9.93
2022-11-05T06:36:22.456Z,9.89
2022-11-05T06:37:24.944Z,9.88
2022-11-05T06:38:27.660Z,9.87
2022-11-05T06:39:29.972Z,9.92
2022-11-05T06:40:36.714Z,9.94
2022-11-05T06:43:03.378Z,10.02
2022-11-05T06:44:05.738Z,10.02
2022-11-05T06:45:11.550Z,10.05
2022-11-05T06:46:13.881Z,10.10
2022-11-05T06:47:19.948Z,10.13
2022-11-05T06:48:22.526Z,10.18
2022-11-05T06:49:25.646Z,10.13
2022-11-05T06:50:29.074Z,10.10
2022-11-05T06:51:33.337Z,10.14
2022-11-05T06:52:41.242Z,10.10
2022-11-05T06:53:43.911Z,10.11
2022-11-05T06:54:46.358Z,10.17
2022-11-05T06:55:52.064Z,10.10
2022-11-05T06:56:55.007Z,10.04
2022-11-05T06:57:58.069Z,10.01
2022-11-05T06:59:00.428Z,10.02
2022-11-05T07:00:07.630Z,10.07
2022-11-05T07:01:10.811Z,10.11
2022-11-05T07:02:13.896Z,10.14
2022-11-05T07:03:16.270Z,10.12
2022-11-05T07:04:18.478Z,10.06
2022-11-05T07:05:22.928Z,10.08
2022-11-05T07:06:25.160Z,10.05
2022-11-05T07:07:27.552Z,10.08
2022-11-05T07:08:34.221Z,10.17
2022-11-05T07:09:42.506Z,10.13
2022-11-05T07:10:44.942Z,10.13
2022-11-05T07:11:47.124Z,10.14
2022-11-05T07:12:49.533Z,10.13
2022-11-05T07:13:51.731Z,10.13
2022-11-05T07:14:54.109Z,10.12
2022-11-05T07:15:56.805Z,10.09
2022-11-05T07:16:58.986Z,10.03
2022-11-05T07:18:02.130Z,10.02
2022-11-05T07:19:04.863Z,10.06
2022-11-05T07:20:08.267Z,10.10
2022-11-05T07:21:10.629Z,10.11
2022-11-05T07:22:12.844Z,10.08
2022-11-05T07:23:16.096Z,10.04
2022-11-05T07:24:18.547Z,10.01
2022-11-05T07:25:23.563Z,9.92
2022-11-05T07:26:31.900Z,9.89
2022-11-05T07:27:40.236Z,10.03
2022-11-05T07:28:42.524Z,10.03
2022-11-05T07:29:44.964Z,10.02
2022-11-05T07:30:48.362Z,10.04
2022-11-05T07:31:51.047Z,10.08
2022-11-05T07:32:53.488Z,10.05
2022-11-05T07:33:56.103Z,10.07
2022-11-05T07:34:58.260Z,10.07
2022-11-05T07:36:00.682Z,9.95
2022-11-05T07:37:02.945Z,10.04
2022-11-05T07:38:05.143Z,10.04
2022-11-05T07:39:07.567Z,10.09
2022-11-05T07:40:11.523Z,10.12
2022-11-05T07:41:13.898Z,10.15
2022-11-05T07:42:16.082Z,10.29
2022-11-05T07:43:18.374Z,10.28
2022-11-05T07:44:23.891Z,10.32
2022-11-05T07:45:28.769Z,10.25
2022-11-05T07:46:31.679Z,10.20
2022-11-05T07:47:36.241Z,10.21
2022-11-05T07:48:38.594Z,10.15
2022-11-05T07:49:41.113Z,10.11
2022-11-05T07:50:43.333Z,10.08
2022-11-05T07:51:45.898Z,10.11
2022-11-05T07:52:48.975Z,10.16
2022-11-05T07:53:51.241Z,10.24
2022-11-05T07:54:53.593Z,10.33
2022-11-05T07:55:57.192Z,10.35
2022-11-05T07:56:59.823Z,10.37
2022-11-05T07:58:02.685Z,10.23
2022-11-05T07:59:05.217Z,10.27
2022-11-05T08:00:09.153Z,10.39
2022-11-05T08:01:14.756Z,10.47
2022-11-05T08:02:17.262Z,10.43
2022-11-05T08:03:20.293Z,10.28
2022-11-05T08:04:22.859Z,10.13
2022-11-05T08:05:25.152Z,10.18
2022-11-05T08:06:27.700Z,10.21
2022-11-05T08:07:30.095Z,10.11
2022-11-05T08:08:35.626Z,9.95
2022-11-05T08:09:38.066Z,9.97
2022-11-05T08:10:45.328Z,9.91
2022-11-05T08:11:52.933Z,9.87
2022-11-05T08:12:56.393Z,9.85
2022-11-05T08:13:58.589Z,9.89
2022-11-05T08:15:01.014Z,9.97
2022-11-05T08:16:04.566Z,10.12
2022-11-05T08:17:10.751Z,10.11
2022-11-05T08:18:16.441Z,10.27
2022-11-05T08:19:18.685Z,10.27
2022-11-05T08:20:21.057Z,10.34
2022-11-05T08:21:25.321Z,10.45
2022-11-05T08:22:27.764Z,10.48
2022-11-05T08:23:32.171Z,10.51
2022-11-05T08:24:34.336Z,10.60
2022-11-05T08:25:37.066Z,10.80
2022-11-05T08:26:39.246Z,10.90
2022-11-05T08:27:41.647Z,10.91
2022-11-05T08:28:43.983Z,10.83
2022-11-05T08:29:46.139Z,10.76
2022-11-05T08:30:50.322Z,10.80
2022-11-05T08:31:52.685Z,10.84
2022-11-05T08:33:00.168Z,10.75
2022-11-05T08:34:03.000Z,10.65
2022-11-05T08:35:05.943Z,10.69
2022-11-05T08:36:08.162Z,10.75
2022-11-05T08:37:10.530Z,10.84
2022-11-05T08:38:15.540Z,10.76
2022-11-05T08:39:18.964Z,10.76
2022-11-05T08:40:21.168Z,10.72
2022-11-05T08:41:23.772Z,10.51
2022-11-05T08:42:26.194Z,10.71
2022-11-05T08:43:28.476Z,10.79
2022-11-05T08:44:30.829Z,10.73
2022-11-05T08:45:34.454Z,10.62
2022-11-05T08:46:41.456Z,10.65
2022-11-05T08:47:44.242Z,10.66
2022-11-05T08:48:46.419Z,10.57
2022-11-05T08:49:48.619Z,10.52
2022-11-05T08:50:51.046Z,10.61
2022-11-05T08:51:53.326Z,10.55
2022-11-05T08:52:55.909Z,10.55
2022-11-05T08:53:58.201Z,10.55
2022-11-05T08:55:01.069Z,10.56
2022-11-05T08:56:03.300Z,10.49
2022-11-05T08:57:05.507Z,10.50
2022-11-05T08:58:12.804Z,10.54
2022-11-05T08:59:15.021Z,10.52
2022-11-05T09:00:18.166Z,10.41
2022-11-05T09:01:20.520Z,10.30
2022-11-05T09:02:23.019Z,10.24
2022-11-05T09:03:25.507Z,10.21
2022-11-05T09:04:27.764Z,10.15
2022-11-05T09:05:31.551Z,10.18
2022-11-05T09:06:35.723Z,10.33
2022-11-05T09:07:38.285Z,10.37
2022-11-05T09:08:41.384Z,10.49
2022-11-05T09:09:43.729Z,10.64
2022-11-05T09:10:47.747Z,10.81
2022-11-05T09:12:11.140Z,11.02
2022-11-05T09:13:18.254Z,11.28
2022-11-05T09:14:21.424Z,11.51
2022-11-05T09:15:27.931Z,11.68
2022-11-05T09:16:32.572Z,11.81
2022-11-05T09:17:34.813Z,11.87
2022-11-05T09:18:39.166Z,11.95
2022-11-05T09:19:41.345Z,11.81
2022-11-05T09:20:43.823Z,11.90
2022-11-05T09:21:46.233Z,12.09
2022-11-05T09:22:48.664Z,12.01
2022-11-05T09:23:51.148Z,11.95
2022-11-05T09:24:53.415Z,11.93
2022-11-05T09:25:55.693Z,11.91
2022-11-05T09:26:58.157Z,12.01
2022-11-05T09:28:31.678Z,12.20
2022-11-05T09:29:33.994Z,12.34
2022-11-05T09:30:40.340Z,12.27
2022-11-05T09:31:42.865Z,12.14
2022-11-05T09:32:45.059Z,12.05
2022-11-05T09:33:47.531Z,12.09
2022-11-05T09:34:50.120Z,12.02
2022-11-05T09:35:53.520Z,12.01
2022-11-05T09:36:57.086Z,12.03
2022-11-05T09:38:01.096Z,12.11
2022-11-05T09:39:03.801Z,12.20
2022-11-05T09:40:07.086Z,12.33
2022-11-05T09:41:20.986Z,12.45
2022-11-05T09:42:29.377Z,12.55
2022-11-05T09:44:00.937Z,12.59
2022-11-05T09:45:09.268Z,12.61
2022-11-05T09:46:24.095Z,12.78
2022-11-05T09:47:33.196Z,12.83
2022-11-05T09:48:38.093Z,12.90
2022-11-05T09:49:44.257Z,12.96
2022-11-05T09:50:46.567Z,13.03
2022-11-05T09:51:49.047Z,12.93
2022-11-05T09:52:51.528Z,12.67
2022-11-05T09:53:54.292Z,12.35
2022-11-05T09:55:01.810Z,12.21
2022-11-05T09:56:04.539Z,12.31
2022-11-05T09:57:15.823Z,12.26
2022-11-05T09:58:28.513Z,12.15
2022-11-05T09:59:50.844Z,12.12
2022-11-05T10:00:53.399Z,12.03
2022-11-05T10:02:04.197Z,12.08
2022-11-05T10:03:10.796Z,12.13
2022-11-05T10:04:21.485Z,12.10
2022-11-05T10:05:26.195Z,12.14
2022-11-05T10:06:29.467Z,12.20
2022-11-05T10:07:41.171Z,12.26
2022-11-05T10:08:47.362Z,12.28
2022-11-05T10:09:53.797Z,12.22
2022-11-05T10:11:22.166Z,12.24
2022-11-05T10:12:30.504Z,12.42
2022-11-05T10:14:02.423Z,12.52
2022-11-05T10:15:17.205Z,12.64
2022-11-05T10:16:39.013Z,12.78
2022-11-05T10:17:48.974Z,12.79
2022-11-05T10:19:06.348Z,12.73
2022-11-05T10:20:11.530Z,12.68
2022-11-05T10:21:32.287Z,12.67
2022-11-05T10:22:43.963Z,12.55
2022-11-05T10:23:50.565Z,12.66
2022-11-05T10:24:55.077Z,12.73
2022-11-05T10:26:02.974Z,12.78
2022-11-05T10:27:05.552Z,12.78
2022-11-05T10:28:09.948Z,12.83
2022-11-05T10:29:16.429Z,12.84
2022-11-05T10:30:19.782Z,12.91
2022-11-05T10:31:23.395Z,12.95
2022-11-05T10:32:34.218Z,13.01
2022-11-05T10:33:51.504Z,12.99
2022-11-05T10:34:58.516Z,12.83
2022-11-05T10:36:07.227Z,12.79
2022-11-05T10:37:10.389Z,12.73
2022-11-05T10:38:15.641Z,12.60
2022-11-05T10:39:20.111Z,12.43
2022-11-05T10:40:49.792Z,12.47
2022-11-05T10:41:57.898Z,12.48
2022-11-05T10:43:10.521Z,12.52
2022-11-05T10:44:39.087Z,12.47
2022-11-05T10:45:59.485Z,12.50
2022-11-05T10:47:42.948Z,12.48
2022-11-05T10:48:45.184Z,12.43
2022-11-05T10:50:17.063Z,12.57
2022-11-05T10:51:19.747Z,12.38
2022-11-05T10:52:30.757Z,12.36
2022-11-05T10:53:35.186Z,12.41
2022-11-05T10:54:37.531Z,12.47
2022-11-05T10:55:46.279Z,12.46
2022-11-05T10:56:49.085Z,12.51
2022-11-05T10:57:52.661Z,12.61
2022-11-05T10:58:57.277Z,12.68
2022-11-05T11:00:18.092Z,12.80
2022-11-05T11:01:27.540Z,12.85
2022-11-05T11:02:30.485Z,12.91
2022-11-05T11:03:51.192Z,13.01
2022-11-05T11:04:58.445Z,13.11
2022-11-05T11:06:07.283Z,13.24
2022-11-05T11:07:38.872Z,13.38
2022-11-05T11:08:45.570Z,13.35
2022-11-05T11:09:49.990Z,13.40
2022-11-05T11:10:58.714Z,13.38
2022-11-05T11:12:04.396Z,13.35
2022-11-05T11:13:08.445Z,13.25
2022-11-05T11:14:13.464Z,13.35
2022-11-05T11:15:27.792Z,13.45
2022-11-05T11:16:35.886Z,13.52
2022-11-05T11:17:38.217Z,13.54
2022-11-05T11:18:43.634Z,13.29
2022-11-05T11:19:47.138Z,13.11
2022-11-05T11:20:49.448Z,13.14
2022-11-05T11:22:03.211Z,13.07
2022-11-05T11:23:12.921Z,13.01
2022-11-05T11:24:26.069Z,12.79
2022-11-05T11:25:41.975Z,12.77
2022-11-05T11:26:44.601Z,12.77
2022-11-05T11:27:47.343Z,12.81
2022-11-05T11:29:07.598Z,12.82
2022-11-05T11:30:18.551Z,12.80
2022-11-05T11:31:24.224Z,12.86
2022-11-05T11:32:47.608Z,12.90
2022-11-05T11:33:55.880Z,12.91
2022-11-05T11:34:58.536Z,12.88
2022-11-05T11:36:05.144Z,12.92
2022-11-05T11:37:19.354Z,12.96
2022-11-05T11:38:23.237Z,12.90
2022-11-05T11:39:29.073Z,12.73
2022-11-05T11:40:38.356Z,12.54
2022-11-05T11:41:44.075Z,12.42
2022-11-05T11:42:51.053Z,12.39
2022-11-05T11:44:04.716Z,12.30
2022-11-05T11:45:29.876Z,12.33
2022-11-05T11:46:34.714Z,12.34
2022-11-05T11:47:44.224Z,12.46
2022-11-05T11:48:48.808Z,12.34
2022-11-05T11:49:54.636Z,12.17
2022-11-05T11:51:01.876Z,12.19
2022-11-05T11:52:10.917Z,12.32
2022-11-05T11:53:20.005Z,12.38
2022-11-05T11:54:28.960Z,12.36
2022-11-05T11:55:31.722Z,12.34
2022-11-05T11:56:44.885Z,12.44
2022-11-05T11:57:52.769Z,12.49
2022-11-05T11:58:57.793Z,12.57
2022-11-05T12:00:09.206Z,12.66
2022-11-05T12:01:12.054Z,12.59
2022-11-05T12:02:20.614Z,12.67
2022-11-05T12:03:39.227Z,12.81
2022-11-05T12:04:55.594Z,12.87
2022-11-05T12:06:24.356Z,13.00
2022-11-05T12:07:39.578Z,13.06
2022-11-05T12:09:06.732Z,13.08
2022-11-05T12:10:18.903Z,13.10
2022-11-05T12:11:34.221Z,13.24
2022-11-05T12:13:13.912Z,13.34
2022-11-05T12:14:46.620Z,13.24
2022-11-05T12:16:17.393Z,13.05
2022-11-05T12:18:01.687Z,12.59
2022-11-05T12:19:24.972Z,12.50
2022-11-05T12:20:41.882Z,12.44
2022-11-05T12:22:10.912Z,12.47
2022-11-05T12:23:19.174Z,12.49
2022-11-05T12:24:21.897Z,12.56
2022-11-05T12:25:30.636Z,12.62
2022-11-05T12:27:01.498Z,12.78
2022-11-05T12:28:22.416Z,12.80
2022-11-05T12:29:36.954Z,12.84
2022-11-05T12:31:00.652Z,12.73
2022-11-05T12:32:21.808Z,12.69
2022-11-05T12:33:27.168Z,12.70
2022-11-05T12:34:35.286Z,12.68
2022-11-05T12:35:57.605Z,12.50
2022-11-05T12:37:15.344Z,12.53
2022-11-05T12:38:35.213Z,12.38
2022-11-05T12:39:43.532Z,12.36
2022-11-05T12:41:16.839Z,12.34
2022-11-05T12:42:50.935Z,12.36
2022-11-05T12:44:08.283Z,12.33
2022-11-05T12:45:44.941Z,12.47
2022-11-05T12:47:08.940Z,12.60
2022-11-05T12:48:57.479Z,12.78
2022-11-05T12:50:17.911Z,12.79
2022-11-05T12:51:25.103Z,12.87
2022-11-05T12:53:01.139Z,12.92
2022-11-05T12:54:25.071Z,12.80
2022-11-05T12:55:32.726Z,12.79
2022-11-05T12:56:47.564Z,12.82
2022-11-05T12:57:54.697Z,12.85
2022-11-05T12:59:31.896Z,12.86
2022-11-05T13:00:35.962Z,12.74
2022-11-05T13:01:46.108Z,12.72
2022-11-05T13:03:15.295Z,12.88
2022-11-05T13:04:32.640Z,12.93
2022-11-05T13:05:42.190Z,12.83
2022-11-05T13:06:48.520Z,12.84
2022-11-05T13:08:00.410Z,12.85
2022-11-05T13:09:25.868Z,12.85
2022-11-05T13:10:36.672Z,12.89
2022-11-05T13:11:42.386Z,12.90
2022-11-05T13:12:49.229Z,12.82
2022-11-05T13:14:18.539Z,12.77
2022-11-05T13:15:35.958Z,12.61
2022-11-05T13:16:46.588Z,12.59
2022-11-05T13:18:04.678Z,12.64
2022-11-05T13:19:26.267Z,12.72
2022-11-05T13:20:37.701Z,12.73
2022-11-05T13:21:43.872Z,12.75
2022-11-05T13:22:50.803Z,12.79
2022-11-05T13:24:05.999Z,12.83
2022-11-05T13:25:21.464Z,12.84
2022-11-05T13:26:43.659Z,12.71
2022-11-05T13:28:10.789Z,12.61
2022-11-05T13:29:26.136Z,12.64
2022-11-05T13:30:37.596Z,12.65
2022-11-05T13:31:45.637Z,12.71
2022-11-05T13:33:06.434Z,12.72
2022-11-05T13:34:12.779Z,12.70
2022-11-05T13:35:20.384Z,12.65
2022-11-05T13:36:52.865Z,12.62
2022-11-05T13:38:22.329Z,12.67
2022-11-05T13:39:30.160Z,12.79
2022-11-05T13:41:21.426Z,12.72
2022-11-05T13:42:41.939Z,12.84
2022-11-05T13:43:59.325Z,12.90
2022-11-05T13:45:22.565Z,12.80
2022-11-05T13:46:49.095Z,12.75
2022-11-05T13:48:19.222Z,12.73
2022-11-05T13:49:24.292Z,12.61
2022-11-05T13:50:54.305Z,12.60
2022-11-05T13:52:44.671Z,12.55
2022-11-05T13:54:01.832Z,12.59
2022-11-05T13:55:31.160Z,12.59
2022-11-05T13:57:18.126Z,12.60
2022-11-05T13:58:32.202Z,12.59
2022-11-05T14:00:03.686Z,12.49
2022-11-05T14:01:24.631Z,12.45
2022-11-05T14:02:35.910Z,12.55
2022-11-05T14:03:45.193Z,12.60
2022-11-05T14:04:54.429Z,12.60
2022-11-05T14:06:06.994Z,12.52
2022-11-05T14:07:15.602Z,12.52
2022-11-05T14:08:21.180Z,12.52
2022-11-05T14:09:27.272Z,12.48
2022-11-05T14:10:41.712Z,12.30
2022-11-05T14:11:52.146Z,12.33
2022-11-05T14:12:57.087Z,12.38
2022-11-05T14:14:17.560Z,12.34
2022-11-05T14:15:30.937Z,12.34
2022-11-05T14:16:54.391Z,12.42
2022-11-05T14:18:27.120Z,12.44
2022-11-05T14:19:34.502Z,12.46
2022-11-05T14:20:46.392Z,12.45
2022-11-05T14:21:56.697Z,12.42
2022-11-05T14:23:17.997Z,12.41
2022-11-05T14:24:23.407Z,12.38
2022-11-05T14:25:45.501Z,12.37
2022-11-05T14:27:02.788Z,12.41
2022-11-05T14:28:36.827Z,12.48
2022-11-05T14:29:43.029Z,12.44
2022-11-05T14:30:47.648Z,12.40
2022-11-05T14:32:09.529Z,12.38
2022-11-05T14:33:37.692Z,12.52
2022-11-05T14:34:54.636Z,12.52
2022-11-05T14:36:28.255Z,12.46
2022-11-05T14:37:36.921Z,12.44
2022-11-05T14:38:46.922Z,12.45
2022-11-05T14:39:50.014Z,12.37
2022-11-05T14:41:03.002Z,12.31
2022-11-05T14:42:23.305Z,12.24
2022-11-05T14:43:28.305Z,12.18
2022-11-05T14:44:34.460Z,12.20
2022-11-05T14:45:40.668Z,12.16
2022-11-05T14:46:49.005Z,12.15
2022-11-05T14:48:04.268Z,12.23
2022-11-05T14:49:09.619Z,12.30
2022-11-05T14:50:20.719Z,12.33
2022-11-05T14:51:44.168Z,12.20
2022-11-05T14:53:00.514Z,12.22
2022-11-05T14:54:18.891Z,12.17
2022-11-05T14:55:31.445Z,12.10
2022-11-05T14:56:45.546Z,12.04
2022-11-05T14:57:48.331Z,12.03
2022-11-05T14:59:36.845Z,12.00
2022-11-05T15:00:43.140Z,11.86
2022-11-05T15:01:45.300Z,11.80